Time;durP1;ratioP1;P1;durP2;ratioP2;P2;SDS_P1;SDS_P2;PMS_P1;PMS_P2;Temp;Humidity;BMP_temperature;BMP_pressure;BME280_temperature;BME280_humidity;BME280_pressure;Samples;Min_cycle;Max_cycle;Signal;HPM_P1;HPM_P2
2022/01/16 00:00:17;;;;;;;23.60;4.80;;;0.60;99.90;;;;;;4978373;28;20168;-60
2022/01/16 00:05:24;;;;;;;12.95;5.10;;;0.60;99.90;;;;;;4978248;28;20217;-60
2022/01/16 00:07:50;;;;;;;18.63;4.88;;;0.60;99.90;;;;;;4978514;28;20164;-60
2022/01/16 00:10:18;;;;;;;14.50;4.85;;;0.50;99.90;;;;;;4978315;28;20199;-58
2022/01/16 00:12:48;;;;;;;13.15;4.82;;;0.50;99.90;;;;;;4978510;28;20191;-61
2022/01/16 00:15:17;;;;;;;17.85;5.57;;;0.50;99.90;;;;;;4978583;28;20171;-60
2022/01/16 00:17:56;;;;;;;18.10;5.45;;;0.50;99.90;;;;;;4978302;28;20505;-61
2022/01/16 00:20:23;;;;;;;18.92;5.18;;;0.50;99.90;;;;;;4978517;28;20170;-60
2022/01/16 00:22:49;;;;;;;23.83;5.68;;;0.50;99.90;;;;;;4978493;28;20180;-61
2022/01/16 00:25:16;;;;;;;14.23;4.90;;;0.50;99.90;;;;;;4978737;28;20175;-60
2022/01/16 00:27:42;;;;;;;17.92;5.03;;;0.40;99.90;;;;;;4978105;28;20179;-60
2022/01/16 00:30:08;;;;;;;16.42;5.07;;;0.40;99.90;;;;;;4977751;28;20582;-60
2022/01/16 00:32:34;;;;;;;18.45;5.07;;;0.40;99.90;;;;;;4978440;28;20164;-59
2022/01/16 00:34:59;;;;;;;16.85;5.28;;;0.40;99.90;;;;;;4977893;28;20178;-59
2022/01/16 00:37:25;;;;;;;19.48;4.25;;;0.40;99.90;;;;;;4977949;28;20607;-60
2022/01/16 00:39:50;;;;;;;15.38;5.30;;;0.40;99.90;;;;;;4977908;28;20175;-60
2022/01/16 00:42:16;;;;;;;16.45;5.30;;;0.40;99.90;;;;;;4978264;28;20175;-61
2022/01/16 00:44:41;;;;;;;22.00;5.15;;;0.40;99.90;;;;;;4977722;28;20167;-60
2022/01/16 00:47:07;;;;;;;12.65;4.70;;;0.40;99.90;;;;;;4977926;28;20213;-60
2022/01/16 00:49:36;;;;;;;18.02;5.03;;;0.40;99.90;;;;;;4977403;28;20665;-60
2022/01/16 00:52:02;;;;;;;15.45;4.85;;;0.30;99.90;;;;;;4977833;28;20230;-60
2022/01/16 00:54:27;;;;;;;12.63;5.00;;;0.40;99.90;;;;;;4976510;28;20514;-60
2022/01/16 00:56:53;;;;;;;14.90;4.57;;;0.40;99.90;;;;;;4977428;28;20562;-60
2022/01/16 00:59:18;;;;;;;12.55;4.53;;;0.40;99.90;;;;;;4977463;28;20183;-60
2022/01/16 01:01:44;;;;;;;12.30;4.63;;;0.40;99.90;;;;;;4977595;28;20167;-60
2022/01/16 01:04:09;;;;;;;16.27;5.07;;;0.40;99.90;;;;;;4977470;28;20191;-60
2022/01/16 01:06:35;;;;;;;12.90;4.95;;;0.40;99.90;;;;;;4975967;28;20601;-59
2022/01/16 01:09:00;;;;;;;18.27;4.88;;;0.40;99.90;;;;;;4977041;28;20211;-60
2022/01/16 01:11:28;;;;;;;21.70;5.70;;;0.40;99.90;;;;;;4977002;28;20202;-60
2022/01/16 01:14:07;;;;;;;17.35;4.80;;;0.50;99.90;;;;;;4977463;28;20174;-60
2022/01/16 01:19:35;;;;;;;15.43;4.40;;;0.40;99.90;;;;;;4917584;29;20189;-60
2022/01/16 01:22:04;;;;;;;21.40;4.82;;;0.40;99.90;;;;;;4917576;29;20205;-60
2022/01/16 01:24:30;;;;;;;14.35;4.47;;;0.40;99.90;;;;;;4917546;29;20249;-61
2022/01/16 01:27:12;;;;;;;12.48;4.38;;;0.40;99.90;;;;;;4917448;29;20192;-60
2022/01/16 01:29:40;;;;;;;16.50;4.60;;;0.40;99.90;;;;;;4917330;29;20198;-61
2022/01/16 01:32:06;;;;;;;16.65;4.95;;;0.40;99.90;;;;;;4917582;29;20174;-59
2022/01/16 01:34:31;;;;;;;14.85;4.25;;;0.40;99.90;;;;;;4917293;29;20193;-60
2022/01/16 01:36:57;;;;;;;14.48;4.47;;;0.40;99.90;;;;;;4917225;29;20195;-60
2022/01/16 01:39:23;;;;;;;18.77;4.95;;;0.40;99.90;;;;;;4920519;29;20653;-60
2022/01/16 01:41:51;;;;;;;16.73;4.78;;;0.40;99.90;;;;;;4928984;29;20185;-61
2022/01/16 01:52:29;;;;;;;8.57;3.80;;;0.40;99.90;;;;;;4921600;28;20204;-60
2022/01/16 01:54:55;;;;;;;14.90;4.03;;;0.40;99.90;;;;;;4976418;28;20592;-61
2022/01/16 01:57:21;;;;;;;11.55;4.03;;;0.40;99.90;;;;;;4976488;28;20186;-57
2022/01/16 01:59:46;;;;;;;17.92;4.28;;;0.40;99.90;;;;;;4976381;28;20195;-60
2022/01/16 02:02:12;;;;;;;11.15;4.55;;;0.40;99.90;;;;;;4976337;28;20171;-59
2022/01/16 02:04:37;;;;;;;14.57;4.00;;;0.40;99.90;;;;;;4976618;28;20175;-60
2022/01/16 02:07:03;;;;;;;16.23;4.13;;;0.40;99.90;;;;;;4976594;28;20187;-59
2022/01/16 02:09:31;;;;;;;17.58;4.65;;;0.40;99.90;;;;;;4977002;28;20192;-60
2022/01/16 02:11:56;;;;;;;14.50;5.00;;;0.30;99.90;;;;;;4976729;28;20178;-60
2022/01/16 02:14:35;;;;;;;14.68;4.38;;;0.30;99.90;;;;;;4976592;28;20168;-60
2022/01/16 02:28:39;;;;;;;14.18;4.50;;;0.30;99.90;;;;;;4958913;28;20242;-61
2022/01/16 02:36:19;;;;;;;15.00;4.60;;;0.40;99.90;;;;;;4975598;28;20230;-61
2022/01/16 02:38:46;;;;;;;20.20;4.28;;;0.40;99.90;;;;;;4975862;28;20159;-60
2022/01/16 02:41:11;;;;;;;18.05;5.30;;;0.40;99.90;;;;;;4976011;28;20187;-58
2022/01/16 02:43:41;;;;;;;15.90;4.97;;;0.40;99.90;;;;;;4975421;28;20179;-59
2022/01/16 02:48:48;;;;;;;20.05;6.00;;;0.40;99.90;;;;;;4975719;28;20481;-59
2022/01/16 02:51:32;;;;;;;19.05;5.45;;;0.40;99.90;;;;;;4975435;28;20198;-59
2022/01/16 02:53:57;;;;;;;17.52;5.47;;;0.40;99.90;;;;;;4975301;28;20160;-59
2022/01/16 02:56:23;;;;;;;17.10;5.53;;;0.50;99.90;;;;;;4974688;28;20542;-58
2022/01/16 02:58:50;;;;;;;19.33;6.10;;;0.50;99.90;;;;;;4975471;28;20260;-60
2022/01/16 03:01:16;;;;;;;15.98;5.93;;;0.50;99.90;;;;;;4975104;28;20531;-60
2022/01/16 03:03:41;;;;;;;13.50;5.95;;;0.50;99.90;;;;;;4975389;28;20198;-60
2022/01/16 03:06:07;;;;;;;15.63;5.18;;;0.50;99.90;;;;;;4974891;28;20194;-59
2022/01/16 03:08:32;;;;;;;17.83;5.45;;;0.60;99.90;;;;;;4975017;28;20168;-59
2022/01/16 03:11:16;;;;;;;18.65;5.35;;;0.60;99.90;;;;;;4975183;28;20581;-59
2022/01/16 03:13:44;;;;;;;18.98;5.75;;;0.60;99.90;;;;;;4975273;28;20186;-59
2022/01/16 03:16:10;;;;;;;12.48;4.55;;;0.60;99.90;;;;;;4975208;28;20168;-58
2022/01/16 03:24:04;;;;;;;17.40;5.22;;;0.60;99.90;;;;;;4975227;28;20171;-61
2022/01/16 03:26:29;;;;;;;17.20;5.63;;;0.60;99.90;;;;;;4975030;28;20172;-60
2022/01/16 03:28:55;;;;;;;18.05;5.95;;;0.70;99.90;;;;;;4974290;28;20187;-60
2022/01/16 03:31:20;;;;;;;17.77;6.10;;;0.60;99.90;;;;;;4974723;28;20199;-60
2022/01/16 03:33:46;;;;;;;17.35;6.10;;;0.60;99.90;;;;;;4974623;28;20163;-60
2022/01/16 03:36:12;;;;;;;20.08;5.47;;;0.60;99.90;;;;;;4974582;28;20211;-61
2022/01/16 03:38:37;;;;;;;18.13;6.18;;;0.70;99.90;;;;;;4974559;28;20175;-60
2022/01/16 03:41:03;;;;;;;17.60;7.07;;;0.70;99.90;;;;;;4974827;28;20638;-60
2022/01/16 03:43:28;;;;;;;17.15;5.90;;;0.70;99.90;;;;;;4974627;28;20176;-61
2022/01/16 03:45:54;;;;;;;18.60;6.50;;;0.70;99.90;;;;;;4974740;28;20167;-61
2022/01/16 03:48:19;;;;;;;19.98;6.35;;;0.80;99.90;;;;;;4974563;28;20178;-60
2022/01/16 03:50:45;;;;;;;15.07;6.68;;;0.80;99.90;;;;;;4973853;28;20191;-60
2022/01/16 03:53:10;;;;;;;21.35;6.93;;;0.90;99.90;;;;;;4974638;28;20172;-60
2022/01/16 03:55:36;;;;;;;14.57;6.25;;;0.90;99.90;;;;;;4974484;28;20599;-61
2022/01/16 03:58:02;;;;;;;16.90;5.78;;;0.90;99.90;;;;;;4974312;28;20167;-60
2022/01/16 04:00:28;;;;;;;16.77;6.57;;;0.90;99.90;;;;;;4974722;28;20226;-60
2022/01/16 04:02:54;;;;;;;16.83;7.00;;;0.90;99.90;;;;;;4974588;28;20176;-61
2022/01/16 04:05:20;;;;;;;19.27;5.88;;;0.90;99.90;;;;;;4974278;28;20243;-61
2022/01/16 04:07:45;;;;;;;19.42;6.60;;;0.90;99.90;;;;;;4974674;28;20167;-61
2022/01/16 04:10:11;;;;;;;15.25;6.22;;;0.90;99.90;;;;;;4974302;28;20230;-59
2022/01/16 04:12:38;;;;;;;14.13;6.50;;;0.90;99.90;;;;;;4974261;28;20171;-60
2022/01/16 04:17:36;;;;;;;20.15;6.18;;;0.90;99.90;;;;;;4974561;28;20229;-60
2022/01/16 04:20:02;;;;;;;19.58;6.55;;;0.90;99.90;;;;;;4974282;28;20188;-60
2022/01/16 04:22:28;;;;;;;18.13;6.85;;;0.80;99.90;;;;;;4974287;28;20288;-60
2022/01/16 04:24:53;;;;;;;14.00;6.53;;;0.80;99.90;;;;;;4974423;28;20179;-60
2022/01/16 04:27:19;;;;;;;19.00;6.88;;;0.80;99.90;;;;;;4974544;28;20178;-60
2022/01/16 04:29:44;;;;;;;15.80;6.35;;;0.80;99.90;;;;;;4974129;28;20196;-60
2022/01/16 04:32:11;;;;;;;15.50;6.85;;;0.80;99.90;;;;;;4974435;28;20190;-59
2022/01/16 04:34:36;;;;;;;14.55;6.97;;;0.70;99.90;;;;;;4974307;28;20183;-60
2022/01/16 04:37:02;;;;;;;17.55;7.15;;;0.70;99.90;;;;;;4973276;28;20784;-60
2022/01/16 04:39:33;;;;;;;16.75;6.53;;;0.80;99.90;;;;;;4975007;28;20218;-59
2022/01/16 04:44:44;;;;;;;13.27;6.55;;;0.70;99.90;;;;;;4977680;28;20166;-59
2022/01/16 04:47:10;;;;;;;21.58;7.15;;;0.70;99.90;;;;;;4977507;28;20588;-59
2022/01/16 04:49:36;;;;;;;17.38;7.80;;;0.70;99.90;;;;;;4977468;28;20567;-60
2022/01/16 04:52:02;;;;;;;15.48;7.25;;;0.70;99.90;;;;;;4976564;28;20218;-58
2022/01/16 04:54:28;;;;;;;18.67;8.02;;;0.70;99.90;;;;;;4977368;28;20731;-58
2022/01/16 04:56:53;;;;;;;21.30;8.60;;;0.70;99.90;;;;;;4977626;28;20163;-60
2022/01/16 04:59:19;;;;;;;22.02;7.85;;;0.70;99.90;;;;;;4977421;28;20156;-60
2022/01/16 05:01:45;;;;;;;15.43;8.27;;;0.70;99.90;;;;;;4977370;28;20168;-60
2022/01/16 05:04:11;;;;;;;21.55;8.43;;;0.70;99.90;;;;;;4977085;28;20163;-60
2022/01/16 05:06:36;;;;;;;19.33;8.60;;;0.70;99.90;;;;;;4977335;28;20234;-60
2022/01/16 05:09:02;;;;;;;17.23;7.72;;;0.70;99.90;;;;;;4977142;28;20496;-60
2022/01/16 05:11:28;;;;;;;21.35;8.98;;;0.70;99.90;;;;;;4977410;28;20275;-59
2022/01/16 05:16:39;;;;;;;20.45;8.23;;;0.80;99.90;;;;;;4977337;28;20164;-59
2022/01/16 05:19:08;;;;;;;17.48;8.73;;;0.80;99.90;;;;;;4977294;28;20218;-60
2022/01/16 05:21:34;;;;;;;20.02;10.05;;;0.90;99.90;;;;;;4977055;28;20502;-62
2022/01/16 05:23:59;;;;;;;19.25;9.38;;;0.90;99.90;;;;;;4977253;28;20172;-59
2022/01/16 05:26:27;;;;;;;24.70;9.60;;;0.90;99.90;;;;;;4977049;28;20179;-59
2022/01/16 05:28:54;;;;;;;23.05;10.48;;;1.00;99.90;;;;;;4976823;28;20651;-59
2022/01/16 05:31:20;;;;;;;24.25;10.10;;;1.00;99.90;;;;;;4976831;28;20214;-59
2022/01/16 05:33:45;;;;;;;23.67;10.30;;;1.00;99.90;;;;;;4976758;28;20607;-60
2022/01/16 05:36:11;;;;;;;21.90;10.55;;;1.00;99.90;;;;;;4976712;28;20171;-60
2022/01/16 05:38:36;;;;;;;20.52;10.90;;;1.00;99.90;;;;;;4976574;28;20172;-60
2022/01/16 05:41:02;;;;;;;20.45;10.05;;;1.10;99.90;;;;;;4976696;28;20214;-59
2022/01/16 05:43:27;;;;;;;22.48;10.85;;;1.10;99.90;;;;;;4976892;28;20168;-61
2022/01/16 05:45:53;;;;;;;24.95;10.50;;;1.10;99.90;;;;;;4976579;28;20265;-61
2022/01/16 05:48:18;;;;;;;24.48;10.75;;;1.10;99.90;;;;;;4976389;28;20179;-59
2022/01/16 05:50:44;;;;;;;25.15;11.05;;;1.20;99.90;;;;;;4976185;28;20187;-60
2022/01/16 05:53:09;;;;;;;17.08;10.15;;;1.10;99.90;;;;;;4975979;28;20168;-59
2022/01/16 05:55:38;;;;;;;21.27;11.55;;;1.20;99.90;;;;;;4976426;28;20182;-61
2022/01/16 05:58:08;;;;;;;22.35;11.38;;;1.20;99.90;;;;;;4976311;28;20164;-60
2022/01/16 06:00:34;;;;;;;19.00;11.13;;;1.20;99.90;;;;;;4976402;28;20204;-60
2022/01/16 06:03:00;;;;;;;23.20;11.32;;;1.20;99.90;;;;;;4976243;28;20194;-60
2022/01/16 06:05:26;;;;;;;23.73;11.32;;;1.20;99.90;;;;;;4976284;28;20615;-60
2022/01/16 06:07:56;;;;;;;21.50;10.77;;;1.20;99.90;;;;;;4976477;28;20576;-59
2022/01/16 06:10:21;;;;;;;23.50;11.07;;;1.20;99.90;;;;;;4975826;28;20210;-60
2022/01/16 06:12:47;;;;;;;20.63;10.63;;;1.30;99.90;;;;;;4976380;28;20172;-60
2022/01/16 06:15:12;;;;;;;20.88;10.32;;;1.30;99.90;;;;;;4975926;28;20179;-59
2022/01/16 06:17:38;;;;;;;18.73;10.80;;;1.30;99.90;;;;;;4976213;28;20163;-60
2022/01/16 06:20:04;;;;;;;22.45;11.07;;;1.30;99.90;;;;;;4975921;28;20182;-58
2022/01/16 06:22:30;;;;;;;19.00;9.80;;;1.40;99.90;;;;;;4975912;28;20215;-60
2022/01/16 06:24:55;;;;;;;21.88;11.90;;;1.40;99.90;;;;;;4975804;28;20184;-59
2022/01/16 06:27:21;;;;;;;22.20;11.02;;;1.40;99.90;;;;;;4975821;28;20186;-59
2022/01/16 06:29:46;;;;;;;19.95;10.40;;;1.40;99.90;;;;;;4975679;28;20825;-60
2022/01/16 06:32:12;;;;;;;22.83;10.45;;;1.40;99.90;;;;;;4975767;28;20187;-60
2022/01/16 06:34:37;;;;;;;23.45;10.88;;;1.30;99.90;;;;;;4975611;28;20186;-58
2022/01/16 06:37:03;;;;;;;21.08;10.93;;;1.40;99.90;;;;;;4975607;28;20172;-59
2022/01/16 06:39:29;;;;;;;18.70;10.48;;;1.40;99.90;;;;;;4976101;28;20160;-59
2022/01/16 06:41:56;;;;;;;21.65;11.13;;;1.40;99.90;;;;;;4975793;28;20175;-60
2022/01/16 06:44:22;;;;;;;21.40;10.13;;;1.30;99.90;;;;;;4975449;28;20637;-59
2022/01/16 06:46:47;;;;;;;24.23;11.60;;;1.40;99.90;;;;;;4975505;28;20172;-60
2022/01/16 06:49:13;;;;;;;21.30;10.80;;;1.40;99.90;;;;;;4975619;28;20595;-60
2022/01/16 06:51:39;;;;;;;25.27;11.77;;;1.40;99.90;;;;;;4975599;28;20163;-60
2022/01/16 06:54:04;;;;;;;22.90;11.73;;;1.40;99.90;;;;;;4975307;28;20183;-60
2022/01/16 06:56:30;;;;;;;26.83;11.50;;;1.40;99.90;;;;;;4975692;28;20534;-60
2022/01/16 06:58:57;;;;;;;21.08;11.25;;;1.40;99.90;;;;;;4975607;28;20197;-60
2022/01/16 07:01:23;;;;;;;24.55;11.73;;;1.40;99.90;;;;;;4975575;28;20176;-61
2022/01/16 07:03:51;;;;;;;24.27;11.95;;;1.40;99.90;;;;;;4974305;28;20665;-61
2022/01/16 07:06:17;;;;;;;21.48;11.50;;;1.40;99.90;;;;;;4975473;28;20531;-61
2022/01/16 07:08:42;;;;;;;24.48;12.20;;;1.40;99.90;;;;;;4976296;28;20179;-59
2022/01/16 07:11:08;;;;;;;27.45;12.38;;;1.40;99.90;;;;;;4976618;28;20563;-61
2022/01/16 07:13:34;;;;;;;24.05;11.52;;;1.40;99.90;;;;;;4976392;28;20179;-59
2022/01/16 07:15:59;;;;;;;23.15;11.80;;;1.30;99.90;;;;;;4976522;28;20522;-60
2022/01/16 07:18:25;;;;;;;24.05;12.73;;;1.30;99.90;;;;;;4977253;28;20227;-60
2022/01/16 07:20:50;;;;;;;23.88;12.15;;;1.40;99.90;;;;;;4976793;28;20670;-60
2022/01/16 07:23:17;;;;;;;23.73;12.13;;;1.30;99.90;;;;;;4976723;28;20226;-60
2022/01/16 07:25:43;;;;;;;25.85;13.25;;;1.40;99.90;;;;;;4976658;28;20167;-60
2022/01/16 07:28:09;;;;;;;27.45;13.40;;;1.40;99.90;;;;;;4977248;28;20167;-59
2022/01/16 07:30:38;;;;;;;25.77;12.27;;;1.40;99.90;;;;;;4977466;28;20253;-60
2022/01/16 07:33:05;;;;;;;23.75;11.98;;;1.40;99.90;;;;;;4977382;28;20183;-60
2022/01/16 07:35:31;;;;;;;25.65;12.93;;;1.40;99.90;;;;;;4976040;28;20251;-60
2022/01/16 07:37:56;;;;;;;28.88;13.10;;;1.40;99.90;;;;;;4975311;28;20179;-60
2022/01/16 07:40:22;;;;;;;23.95;11.73;;;1.40;99.90;;;;;;4975007;28;20172;-60
2022/01/16 07:42:48;;;;;;;27.48;13.43;;;1.40;99.90;;;;;;4975119;28;20180;-60
2022/01/16 07:45:13;;;;;;;28.95;12.70;;;1.50;99.90;;;;;;4975531;28;20266;-60
2022/01/16 07:47:39;;;;;;;27.98;13.07;;;1.50;99.90;;;;;;4973916;28;20175;-59
2022/01/16 07:50:06;;;;;;;25.88;12.93;;;1.50;99.90;;;;;;4974507;28;20661;-60
2022/01/16 07:52:32;;;;;;;25.63;12.68;;;1.60;99.90;;;;;;4974879;28;20182;-59
2022/01/16 07:54:57;;;;;;;26.95;11.95;;;1.50;99.90;;;;;;4974856;28;20175;-60
2022/01/16 07:57:23;;;;;;;28.85;12.98;;;1.50;99.90;;;;;;4974573;28;20501;-60
2022/01/16 07:59:48;;;;;;;29.45;13.95;;;1.60;99.90;;;;;;4974527;28;20175;-60
2022/01/16 08:02:14;;;;;;;27.05;13.13;;;1.60;99.90;;;;;;4974545;28;20180;-59
2022/01/16 08:04:39;;;;;;;27.42;12.32;;;1.60;99.90;;;;;;4974528;28;20179;-60
2022/01/16 08:07:09;;;;;;;28.15;13.30;;;1.60;99.90;;;;;;4974712;28;20191;-59
2022/01/16 08:09:34;;;;;;;27.80;13.00;;;1.60;99.90;;;;;;4974842;28;20171;-59
2022/01/16 08:12:00;;;;;;;27.70;12.63;;;1.70;99.90;;;;;;4974830;28;20194;-59
2022/01/16 08:14:26;;;;;;;26.67;13.02;;;1.70;99.90;;;;;;4974717;28;20499;-59
2022/01/16 08:16:51;;;;;;;29.98;12.95;;;1.70;99.90;;;;;;4977663;28;20164;-60
2022/01/16 08:19:17;;;;;;;28.40;14.23;;;1.80;99.90;;;;;;4978357;28;20271;-60
2022/01/16 08:21:42;;;;;;;33.47;14.15;;;1.80;99.90;;;;;;4979154;28;20215;-59
2022/01/16 08:24:08;;;;;;;31.02;13.52;;;1.80;99.90;;;;;;4979093;28;20198;-60
2022/01/16 08:26:33;;;;;;;28.17;12.48;;;1.90;99.90;;;;;;4978444;28;20164;-59
2022/01/16 08:28:59;;;;;;;32.92;14.30;;;1.90;99.90;;;;;;4978070;28;20172;-59
2022/01/16 08:31:24;;;;;;;28.30;12.98;;;1.90;99.90;;;;;;4978067;28;20207;-61
2022/01/16 08:33:50;;;;;;;32.85;14.52;;;2.00;99.90;;;;;;4978548;28;20314;-60
2022/01/16 08:36:16;;;;;;;32.97;14.52;;;2.00;99.90;;;;;;4977719;28;20278;-59
2022/01/16 08:38:43;;;;;;;33.15;15.40;;;2.00;99.90;;;;;;4977243;28;20540;-58
2022/01/16 08:41:09;;;;;;;32.03;13.48;;;2.00;99.90;;;;;;4977914;28;20199;-59
2022/01/16 08:43:34;;;;;;;29.48;13.88;;;2.10;99.90;;;;;;4977934;28;20168;-60
2022/01/16 08:46:00;;;;;;;36.25;15.02;;;2.10;99.90;;;;;;4977967;28;20237;-60
2022/01/16 08:48:27;;;;;;;34.35;15.02;;;2.10;99.90;;;;;;4977916;28;20175;-60
2022/01/16 08:50:52;;;;;;;36.65;16.45;;;2.20;99.90;;;;;;4977301;28;20282;-60
2022/01/16 08:53:18;;;;;;;33.13;14.38;;;2.20;99.90;;;;;;4977519;28;20176;-60
2022/01/16 08:55:43;;;;;;;32.20;14.73;;;2.20;99.90;;;;;;4978016;28;20542;-61
2022/01/16 08:58:09;;;;;;;33.15;15.50;;;2.30;99.90;;;;;;4977397;28;20587;-61
2022/01/16 09:00:35;;;;;;;35.15;15.43;;;2.30;99.90;;;;;;4977545;28;20246;-60
2022/01/16 09:03:00;;;;;;;37.50;17.05;;;2.30;99.90;;;;;;4977545;28;20178;-60
2022/01/16 09:05:26;;;;;;;36.60;16.33;;;2.40;99.90;;;;;;4977310;28;20206;-60
2022/01/16 09:07:52;;;;;;;38.90;16.17;;;2.40;99.90;;;;;;4977597;28;20249;-60
2022/01/16 09:10:18;;;;;;;39.17;17.15;;;2.40;99.90;;;;;;4977116;28;20571;-60
2022/01/16 09:12:43;;;;;;;38.53;16.95;;;2.40;99.90;;;;;;4977385;28;20203;-60
2022/01/16 09:15:11;;;;;;;41.35;18.30;;;2.40;99.90;;;;;;4977048;28;20191;-60
2022/01/16 09:17:37;;;;;;;40.40;17.33;;;2.40;99.90;;;;;;4977117;28;20604;-60
2022/01/16 09:20:05;;;;;;;40.75;16.95;;;2.50;99.90;;;;;;4976968;28;20559;-60
2022/01/16 09:22:30;;;;;;;40.13;17.13;;;2.40;99.90;;;;;;4977300;28;20167;-60
2022/01/16 09:24:56;;;;;;;45.85;18.23;;;2.40;99.90;;;;;;4977306;28;20686;-60
2022/01/16 09:27:21;;;;;;;38.65;17.02;;;2.50;99.90;;;;;;4981171;28;20171;-60
2022/01/16 09:29:47;;;;;;;39.42;18.48;;;2.50;99.90;;;;;;4976858;28;20206;-60
2022/01/16 09:32:13;;;;;;;44.50;19.33;;;2.50;99.90;;;;;;4977097;28;20180;-60
2022/01/16 09:34:40;;;;;;;43.17;19.02;;;2.50;99.90;;;;;;4977063;28;20160;-58
2022/01/16 09:37:08;;;;;;;40.92;17.90;;;2.50;99.90;;;;;;4976828;28;20498;-58
2022/01/16 09:39:35;;;;;;;41.08;17.52;;;2.50;99.90;;;;;;4977115;28;20176;-59
2022/01/16 09:42:03;;;;;;;46.47;18.65;;;2.50;99.90;;;;;;4976818;28;20533;-59
2022/01/16 09:44:29;;;;;;;43.75;19.23;;;2.60;99.90;;;;;;4977166;28;20182;-59
2022/01/16 09:46:54;;;;;;;45.75;20.05;;;2.60;99.90;;;;;;4975815;28;20160;-59
2022/01/16 09:49:20;;;;;;;45.28;19.13;;;2.60;99.90;;;;;;4975893;28;20176;-60
2022/01/16 09:51:45;;;;;;;43.80;19.80;;;2.70;99.90;;;;;;4976439;28;20203;-60
2022/01/16 09:54:11;;;;;;;46.30;19.52;;;2.60;99.90;;;;;;4976715;28;20187;-59
2022/01/16 09:56:37;;;;;;;43.30;19.13;;;2.70;99.90;;;;;;4976560;28;20622;-60
2022/01/16 09:59:02;;;;;;;47.13;19.95;;;2.70;99.90;;;;;;4976675;28;20241;-60
2022/01/16 10:01:28;;;;;;;48.83;20.23;;;2.70;99.90;;;;;;4975284;28;20171;-60
2022/01/16 10:03:53;;;;;;;49.03;18.88;;;2.70;99.90;;;;;;4976266;28;20175;-59
2022/01/16 10:06:21;;;;;;;45.50;19.38;;;2.70;99.90;;;;;;4976449;28;20194;-61
2022/01/16 10:08:51;;;;;;;42.22;17.95;;;2.70;99.90;;;;;;4976745;28;20269;-60
2022/01/16 10:11:32;;;;;;;50.28;19.45;;;2.80;99.90;;;;;;4976381;28;20187;-60
2022/01/16 10:14:11;;;;;;;47.78;18.70;;;2.80;99.90;;;;;;4976318;28;20235;-61
2022/01/16 10:16:38;;;;;;;46.63;18.05;;;2.80;99.90;;;;;;4975911;28;20544;-60
2022/01/16 10:19:05;;;;;;;47.97;19.65;;;2.80;99.90;;;;;;4976319;28;20179;-61
2022/01/16 10:21:39;;;;;;;49.38;20.20;;;2.80;99.90;;;;;;4975271;28;20182;-61
2022/01/16 10:24:22;;;;;;;46.67;18.98;;;2.80;99.90;;;;;;4959190;28;20259;-60
2022/01/16 10:26:50;;;;;;;44.65;19.20;;;2.80;99.90;;;;;;4975509;28;20183;-60
2022/01/16 10:29:20;;;;;;;43.80;18.35;;;2.80;99.90;;;;;;4976202;28;20175;-61
2022/01/16 10:31:46;;;;;;;44.97;19.45;;;2.80;99.90;;;;;;4975997;28;20188;-61
2022/01/16 10:34:27;;;;;;;50.97;19.42;;;2.90;99.90;;;;;;4976074;28;20171;-61
2022/01/16 10:36:52;;;;;;;49.85;19.42;;;2.80;99.90;;;;;;4975861;28;20496;-61
2022/01/16 10:39:18;;;;;;;45.53;18.02;;;2.90;99.90;;;;;;4975694;28;20186;-61
2022/01/16 10:41:43;;;;;;;51.30;19.17;;;2.90;99.90;;;;;;4975471;28;20242;-60
2022/01/16 10:44:30;;;;;;;47.33;19.88;;;2.90;99.90;;;;;;4975818;28;20306;-61
2022/01/16 10:46:56;;;;;;;43.00;18.02;;;2.90;99.90;;;;;;4975744;28;20206;-60
2022/01/16 10:49:22;;;;;;;55.03;19.50;;;2.90;99.90;;;;;;4975531;28;20199;-60
2022/01/16 10:52:02;;;;;;;45.35;18.33;;;2.90;99.90;;;;;;4975587;28;20207;-60
2022/01/16 10:54:31;;;;;;;46.38;19.15;;;2.90;99.90;;;;;;4975509;28;20196;-61
2022/01/16 10:56:57;;;;;;;54.20;18.92;;;2.90;99.90;;;;;;4975561;28;20167;-60
2022/01/16 10:59:23;;;;;;;42.58;18.63;;;2.90;99.90;;;;;;4975396;28;20611;-61
2022/01/16 11:02:08;;;;;;;55.70;20.10;;;3.00;99.90;;;;;;4975701;28;20247;-61
2022/01/16 11:04:33;;;;;;;46.53;17.85;;;3.00;99.90;;;;;;4975302;28;20199;-60
2022/01/16 11:07:04;;;;;;;48.60;18.48;;;3.00;99.90;;;;;;4974964;28;20218;-61
2022/01/16 11:09:31;;;;;;;47.63;18.05;;;3.00;99.90;;;;;;4975109;28;20164;-60
2022/01/16 11:11:59;;;;;;;52.72;18.00;;;3.00;99.90;;;;;;4975469;28;20215;-58
2022/01/16 11:14:26;;;;;;;45.28;17.63;;;3.00;99.90;;;;;;4975083;28;20174;-61
2022/01/16 11:16:53;;;;;;;46.72;19.17;;;3.00;99.90;;;;;;4975521;28;20183;-59
2022/01/16 11:19:21;;;;;;;46.83;18.23;;;3.00;99.90;;;;;;4980955;28;20206;-60
2022/01/16 11:21:51;;;;;;;50.83;18.27;;;3.00;99.90;;;;;;4977759;28;20184;-60
2022/01/16 11:26:43;;;;;;;44.03;17.48;;;3.00;99.90;;;;;;4976005;28;20219;-60
2022/01/16 11:29:08;;;;;;;60.75;18.95;;;3.10;99.90;;;;;;4976400;28;20206;-60
2022/01/16 11:31:34;;;;;;;50.78;18.38;;;3.10;99.90;;;;;;4977166;28;20199;-61
2022/01/16 11:34:00;;;;;;;44.63;18.63;;;3.10;99.90;;;;;;4976110;28;20474;-61
2022/01/16 11:36:28;;;;;;;45.60;17.85;;;3.10;99.90;;;;;;4976402;28;20254;-61
2022/01/16 11:38:59;;;;;;;51.67;18.20;;;3.10;99.90;;;;;;4976253;28;20603;-61
2022/01/16 11:41:34;;;;;;;49.95;19.25;;;3.10;99.90;;;;;;4976028;28;20688;-58
2022/01/16 11:44:02;;;;;;;51.00;18.17;;;3.10;99.90;;;;;;4975085;28;20187;-59
2022/01/16 11:46:29;;;;;;;45.45;16.55;;;3.20;99.90;;;;;;4975175;28;20180;-58
2022/01/16 11:49:01;;;;;;;50.92;19.08;;;3.20;99.90;;;;;;4974812;28;20179;-57
2022/01/16 11:51:39;;;;;;;48.50;17.75;;;3.30;99.90;;;;;;4978815;28;20199;-59
2022/01/16 11:54:13;;;;;;;46.47;18.08;;;3.30;99.90;;;;;;4979130;28;20604;-59
2022/01/16 11:56:41;;;;;;;48.33;18.70;;;3.30;99.90;;;;;;4977842;28;20234;-59
2022/01/16 11:59:16;;;;;;;53.75;18.35;;;3.40;99.90;;;;;;4978796;28;20476;-59
2022/01/16 12:01:42;;;;;;;50.20;18.30;;;3.40;99.90;;;;;;4978802;28;20171;-59
2022/01/16 12:04:28;;;;;;;41.05;15.88;;;3.40;99.90;;;;;;4978576;28;20171;-59
2022/01/16 12:06:55;;;;;;;46.97;17.50;;;3.40;99.90;;;;;;4982366;28;20211;-60
2022/01/16 12:12:12;;;;;;;49.45;18.67;;;3.40;99.90;;;;;;4978759;28;20174;-60
2022/01/16 12:14:50;;;;;;;44.67;16.67;;;3.40;99.90;;;;;;4978644;28;20183;-59
2022/01/16 12:17:39;;;;;;;43.08;16.13;;;3.40;99.90;;;;;;4978081;28;20171;-59
2022/01/16 12:22:46;;;;;;;43.72;17.52;;;3.40;99.90;;;;;;4978245;28;20257;-59
2022/01/16 12:25:40;;;;;;;45.42;17.73;;;3.40;99.90;;;;;;4978060;28;20643;-60
2022/01/16 12:28:08;;;;;;;42.95;17.52;;;3.50;99.90;;;;;;4978190;28;20176;-59
2022/01/16 12:30:38;;;;;;;38.53;17.15;;;3.60;99.90;;;;;;4977801;28;20471;-60
2022/01/16 12:33:09;;;;;;;37.70;15.25;;;3.60;99.90;;;;;;4978139;28;20245;-60
2022/01/16 12:35:58;;;;;;;43.63;17.30;;;3.60;99.90;;;;;;4978113;28;20542;-61
2022/01/16 12:38:25;;;;;;;39.92;17.63;;;3.60;99.90;;;;;;4978152;28;20156;-61
2022/01/16 12:41:25;;;;;;;37.47;15.75;;;3.60;99.90;;;;;;4977870;28;20192;-61
2022/01/16 12:43:57;;;;;;;41.85;17.38;;;3.50;99.90;;;;;;4975482;28;20349;-60
2022/01/16 12:46:33;;;;;;;38.58;15.75;;;3.50;99.90;;;;;;4977709;28;20167;-60
2022/01/16 12:49:02;;;;;;;34.70;14.20;;;3.50;99.90;;;;;;4977513;28;20163;-60
2022/01/16 12:51:30;;;;;;;34.17;13.75;;;3.50;99.90;;;;;;4977739;28;20199;-60
2022/01/16 12:54:04;;;;;;;37.00;14.48;;;3.50;99.90;;;;;;4977736;28;20270;-60
2022/01/16 12:56:44;;;;;;;34.20;15.00;;;3.50;99.90;;;;;;4977815;28;20195;-61
2022/01/16 12:59:21;;;;;;;31.90;14.40;;;3.50;99.90;;;;;;4977447;28;20148;-60
2022/01/16 13:01:55;;;;;;;31.70;13.27;;;3.50;99.90;;;;;;4977755;28;20179;-60
2022/01/16 13:04:29;;;;;;;29.13;13.25;;;3.50;99.90;;;;;;4977629;28;20187;-61
2022/01/16 13:07:00;;;;;;;26.63;12.95;;;3.50;99.90;;;;;;4977371;28;20191;-60
2022/01/16 13:09:27;;;;;;;34.78;14.55;;;3.50;99.90;;;;;;4977261;28;20587;-60
2022/01/16 13:12:01;;;;;;;29.42;13.30;;;3.50;99.90;;;;;;4977488;28;20211;-61
2022/01/16 13:14:31;;;;;;;30.27;12.63;;;3.50;99.90;;;;;;4977443;28;20152;-59
2022/01/16 13:17:03;;;;;;;31.38;13.27;;;3.50;99.90;;;;;;4977524;28;20634;-59
2022/01/16 13:19:39;;;;;;;31.90;14.48;;;3.50;99.90;;;;;;4976963;28;20159;-60
2022/01/16 13:22:13;;;;;;;25.52;13.00;;;3.50;99.90;;;;;;4977312;28;20226;-60
2022/01/16 13:24:44;;;;;;;29.85;13.52;;;3.50;99.90;;;;;;4977054;28;20147;-60
2022/01/16 13:27:16;;;;;;;28.42;12.57;;;3.50;99.90;;;;;;4977134;28;20167;-61
2022/01/16 13:29:45;;;;;;;26.63;12.77;;;3.50;99.90;;;;;;4976995;28;20172;-60
2022/01/16 13:32:13;;;;;;;30.25;13.35;;;3.50;99.90;;;;;;4976102;28;20172;-60
2022/01/16 13:34:50;;;;;;;27.27;12.18;;;3.50;99.90;;;;;;4976840;28;20428;-60
2022/01/16 13:37:37;;;;;;;28.08;12.93;;;3.60;99.90;;;;;;4977021;28;20160;-60